createdAt,value
2017-07-26T00:00:42.868Z,60.30
2017-07-26T00:03:09.261Z,60.20
2017-07-26T00:05:35.681Z,59.90
2017-07-26T00:08:02.093Z,60.00
2017-07-26T00:10:29.274Z,59.50
2017-07-26T00:12:55.666Z,60.10
2017-07-26T00:15:22.057Z,59.50
2017-07-26T00:17:48.448Z,59.40
2017-07-26T00:20:15.581Z,59.00
2017-07-26T00:22:42.892Z,59.40
2017-07-26T00:25:09.294Z,59.10
2017-07-26T00:27:35.703Z,59.10
2017-07-26T00:30:02.878Z,59.50
2017-07-26T00:32:29.290Z,59.60
2017-07-26T00:34:56.442Z,59.80
2017-07-26T00:37:22.882Z,59.70
2017-07-26T00:39:49.322Z,59.60
2017-07-26T00:42:15.730Z,59.90
2017-07-26T00:44:42.904Z,59.70
2017-07-26T00:47:09.329Z,59.70
2017-07-26T00:49:36.469Z,59.40
2017-07-26T00:52:03.628Z,59.90
2017-07-26T00:54:30.013Z,60.40
2017-07-26T00:56:56.475Z,59.50
2017-07-26T00:59:23.612Z,59.60
2017-07-26T01:01:50.029Z,60.20
2017-07-26T01:04:16.424Z,59.80
2017-07-26T01:06:42.853Z,59.80
2017-07-26T01:09:09.282Z,60.00
2017-07-26T01:11:35.689Z,60.20
2017-07-26T01:14:02.837Z,60.10
2017-07-26T01:16:29.252Z,60.10
2017-07-26T01:18:55.640Z,60.30
2017-07-26T01:21:22.046Z,60.40
2017-07-26T01:23:49.257Z,60.70
2017-07-26T01:26:16.432Z,61.10
2017-07-26T01:28:42.807Z,60.70
2017-07-26T01:31:09.231Z,61.00
2017-07-26T01:33:35.664Z,60.60
2017-07-26T01:36:02.064Z,60.30
2017-07-26T01:38:29.215Z,59.70
2017-07-26T01:40:55.618Z,60.00
2017-07-26T01:43:22.068Z,59.90
2017-07-26T01:45:48.541Z,60.00
2017-07-26T01:48:14.990Z,60.00
2017-07-26T01:50:41.424Z,60.30
2017-07-26T01:53:07.855Z,60.50
2017-07-26T01:55:34.307Z,60.90
2017-07-26T01:58:00.897Z,60.80
2017-07-26T02:00:28.036Z,60.70
2017-07-26T02:02:55.216Z,60.50
2017-07-26T02:05:21.652Z,60.50
2017-07-26T02:07:48.056Z,60.80
2017-07-26T02:10:15.206Z,61.40
2017-07-26T02:12:42.349Z,61.80
2017-07-26T02:15:08.735Z,61.80
2017-07-26T02:17:35.145Z,61.30
2017-07-26T02:20:01.548Z,61.90
2017-07-26T02:22:27.955Z,61.60
2017-07-26T02:24:54.410Z,61.40
2017-07-26T02:27:20.911Z,61.70
2017-07-26T02:29:47.322Z,60.80
2017-07-26T02:32:13.732Z,61.70
2017-07-26T02:34:40.142Z,62.10
2017-07-26T02:37:07.305Z,62.80
2017-07-26T02:39:34.461Z,62.80
2017-07-26T02:42:00.869Z,62.80
2017-07-26T02:44:27.271Z,63.00
2017-07-26T02:46:53.703Z,62.90
2017-07-26T02:49:20.104Z,62.60
2017-07-26T02:51:46.514Z,62.60
2017-07-26T02:54:13.645Z,63.00
2017-07-26T02:56:40.027Z,62.70
2017-07-26T02:59:06.416Z,62.90
2017-07-26T03:01:32.869Z,63.20
2017-07-26T03:03:59.276Z,63.60
2017-07-26T03:06:25.738Z,64.20
2017-07-26T03:08:52.182Z,64.60
2017-07-26T03:11:18.583Z,64.30
2017-07-26T03:13:45.734Z,63.80
2017-07-26T03:16:12.886Z,64.60
2017-07-26T03:18:40.039Z,64.00
2017-07-26T03:21:07.584Z,63.60
2017-07-26T03:23:34.026Z,63.60
2017-07-26T03:26:01.158Z,63.20
2017-07-26T03:28:27.616Z,63.10
2017-07-26T03:30:54.753Z,63.90
2017-07-26T03:33:21.146Z,63.90
2017-07-26T03:35:47.560Z,64.30
2017-07-26T03:38:13.973Z,64.10
2017-07-26T03:40:41.121Z,64.00
2017-07-26T03:43:08.288Z,63.30
2017-07-26T03:45:34.703Z,63.30
2017-07-26T03:48:01.139Z,62.30
2017-07-26T03:50:27.529Z,61.80
2017-07-26T03:52:53.920Z,61.60
2017-07-26T03:55:20.328Z,61.20
2017-07-26T03:57:47.483Z,60.90
2017-07-26T04:00:13.931Z,60.80
2017-07-26T04:02:40.344Z,60.80
2017-07-26T04:05:07.514Z,61.00
2017-07-26T04:07:34.010Z,61.00
2017-07-26T04:10:00.402Z,60.70
2017-07-26T04:12:27.001Z,60.90
2017-07-26T04:14:54.146Z,61.90
2017-07-26T04:17:21.277Z,62.10
2017-07-26T04:19:47.703Z,62.10
2017-07-26T04:22:14.098Z,61.90
2017-07-26T04:24:40.505Z,62.40
2017-07-26T04:27:06.923Z,62.10
2017-07-26T04:29:34.057Z,62.50
2017-07-26T04:32:00.501Z,62.50
2017-07-26T04:34:27.644Z,62.10
2017-07-26T04:36:54.038Z,62.10
2017-07-26T04:39:21.049Z,62.00
2017-07-26T04:41:48.179Z,61.40
2017-07-26T04:44:15.333Z,60.90
2017-07-26T04:46:42.480Z,60.60
2017-07-26T04:49:09.655Z,60.80
2017-07-26T04:51:36.252Z,60.70
2017-07-26T04:54:02.661Z,60.20
2017-07-26T04:56:29.036Z,60.00
2017-07-26T04:58:56.228Z,59.50
2017-07-26T05:01:22.645Z,59.40
2017-07-26T05:03:49.029Z,59.50
2017-07-26T05:06:15.418Z,58.90
2017-07-26T05:08:41.888Z,58.60
2017-07-26T05:11:08.312Z,58.70
2017-07-26T05:13:34.733Z,58.20
2017-07-26T05:16:01.200Z,57.60
2017-07-26T05:18:27.609Z,57.90
2017-07-26T05:20:54.078Z,58.60
2017-07-26T05:23:21.265Z,58.60
2017-07-26T05:25:47.694Z,58.60
2017-07-26T05:28:14.072Z,58.00
2017-07-26T05:30:40.505Z,58.30
2017-07-26T05:33:06.914Z,58.10
2017-07-26T05:35:33.332Z,58.00
2017-07-26T05:37:59.734Z,57.70
2017-07-26T05:40:26.866Z,57.50
2017-07-26T05:42:53.340Z,57.40
2017-07-26T05:45:19.762Z,57.50
2017-07-26T05:47:46.180Z,57.90
2017-07-26T05:50:13.383Z,60.70
2017-07-26T05:52:39.782Z,60.60
2017-07-26T05:55:06.161Z,62.50
2017-07-26T05:57:32.569Z,63.30
2017-07-26T05:59:59.033Z,63.20
2017-07-26T06:02:25.451Z,63.50
2017-07-26T06:04:51.856Z,63.10
2017-07-26T06:07:18.262Z,63.20
2017-07-26T06:09:45.560Z,63.50
2017-07-26T06:12:18.983Z,64.80
2017-07-26T06:14:51.840Z,64.10
2017-07-26T06:17:25.122Z,63.50
2017-07-26T06:19:51.513Z,63.40
2017-07-26T06:22:18.645Z,64.10
2017-07-26T06:24:45.071Z,64.10
2017-07-26T06:27:11.470Z,63.30
2017-07-26T06:29:39.036Z,62.30
2017-07-26T06:32:05.439Z,62.60
2017-07-26T06:34:31.813Z,61.70
2017-07-26T06:36:58.217Z,61.70
2017-07-26T06:39:25.184Z,60.60
2017-07-26T06:41:51.582Z,60.50
2017-07-26T06:44:18.011Z,60.60
2017-07-26T06:46:46.546Z,60.20
2017-07-26T06:49:12.937Z,59.70
2017-07-26T06:51:39.353Z,60.40
2017-07-26T06:54:06.477Z,61.60
2017-07-26T06:56:32.890Z,61.60
2017-07-26T06:59:00.054Z,61.50
2017-07-26T07:01:26.456Z,61.50
2017-07-26T07:03:52.864Z,61.50
2017-07-26T07:06:19.285Z,61.30
2017-07-26T07:08:45.692Z,62.10
2017-07-26T07:11:12.847Z,62.00
2017-07-26T07:13:39.976Z,61.90
2017-07-26T07:16:06.472Z,61.90
2017-07-26T07:18:32.894Z,61.60
2017-07-26T07:20:59.304Z,61.90
2017-07-26T07:23:26.430Z,62.50
2017-07-26T07:25:52.821Z,62.10
2017-07-26T07:28:19.269Z,61.30
2017-07-26T07:30:45.713Z,60.90
2017-07-26T07:33:12.146Z,60.90
2017-07-26T07:35:38.620Z,61.40
2017-07-26T07:38:05.769Z,59.60
2017-07-26T07:40:32.909Z,59.70
2017-07-26T07:42:59.299Z,59.60
2017-07-26T07:45:25.712Z,60.10
2017-07-26T07:47:52.119Z,59.80
2017-07-26T07:50:19.340Z,59.20
2017-07-26T07:52:45.758Z,59.10
2017-07-26T07:55:12.183Z,58.30
2017-07-26T07:57:38.593Z,56.90
2017-07-26T08:00:04.993Z,57.40
2017-07-26T08:02:32.136Z,58.30
2017-07-26T08:04:58.533Z,57.90
2017-07-26T08:07:24.929Z,58.50
2017-07-26T08:09:51.338Z,58.60
2017-07-26T08:12:17.872Z,59.50
2017-07-26T08:14:45.013Z,59.20
2017-07-26T08:17:11.409Z,59.00
2017-07-26T08:19:37.821Z,58.00
2017-07-26T08:22:04.225Z,58.30
2017-07-26T08:24:31.391Z,57.80
2017-07-26T08:26:57.812Z,57.70
2017-07-26T08:29:24.932Z,57.70
2017-07-26T08:31:51.361Z,57.70
2017-07-26T08:34:17.849Z,57.70
2017-07-26T08:36:44.266Z,58.10
2017-07-26T08:39:11.400Z,56.60
2017-07-26T08:41:38.546Z,57.50
2017-07-26T08:44:05.707Z,57.10
2017-07-26T08:46:32.840Z,56.70
2017-07-26T08:48:59.256Z,56.70
2017-07-26T08:51:25.673Z,56.30
2017-07-26T08:53:52.069Z,56.80
2017-07-26T08:56:18.474Z,56.70
2017-07-26T08:58:45.651Z,56.90
2017-07-26T09:01:12.109Z,56.90
2017-07-26T09:03:38.519Z,56.00
2017-07-26T09:06:04.929Z,56.10
2017-07-26T09:08:32.088Z,56.50
2017-07-26T09:10:59.240Z,56.60
2017-07-26T09:13:26.378Z,55.80
2017-07-26T09:15:52.820Z,55.80
2017-07-26T09:18:20.003Z,55.00
2017-07-26T09:20:46.798Z,55.00
2017-07-26T09:23:13.251Z,55.30
2017-07-26T09:25:40.420Z,55.10
2017-07-26T09:28:06.841Z,55.00
2017-07-26T09:30:33.265Z,55.00
2017-07-26T09:33:00.445Z,56.60
2017-07-26T09:35:26.843Z,56.70
2017-07-26T09:37:53.977Z,59.30
2017-07-26T09:40:20.435Z,59.30
2017-07-26T09:42:46.874Z,60.50
2017-07-26T09:45:13.355Z,60.70
2017-07-26T09:47:39.820Z,62.30
2017-07-26T09:50:07.029Z,65.10
2017-07-26T09:52:33.439Z,65.10
2017-07-26T09:54:59.842Z,65.80
2017-07-26T09:57:26.993Z,68.40
2017-07-26T09:59:54.144Z,68.60
2017-07-26T10:02:21.329Z,69.50
2017-07-26T10:04:47.797Z,69.50
2017-07-26T10:07:14.306Z,69.60
2017-07-26T10:09:40.716Z,70.20
2017-07-26T10:12:07.125Z,71.10
2017-07-26T10:14:34.304Z,72.40
2017-07-26T10:17:00.714Z,72.40
2017-07-26T10:19:27.890Z,75.00
2017-07-26T10:21:54.330Z,75.00
2017-07-26T10:24:20.742Z,73.70
2017-07-26T10:26:51.356Z,74.70
2017-07-26T10:31:50.475Z,75.80
2017-07-26T10:34:16.909Z,73.90
2017-07-26T10:36:44.362Z,73.80
2017-07-26T10:39:11.709Z,70.90
2017-07-26T10:41:39.080Z,68.80
2017-07-26T10:44:05.489Z,68.80
2017-07-26T10:46:32.124Z,68.80
2017-07-26T10:51:27.243Z,68.90
2017-07-26T10:53:53.885Z,67.40
2017-07-26T10:56:20.284Z,67.80
2017-07-26T10:58:46.665Z,67.30
2017-07-26T11:01:13.996Z,65.80
2017-07-26T11:03:40.631Z,65.80
2017-07-26T11:06:07.056Z,67.10
2017-07-26T11:08:33.709Z,66.80
2017-07-26T11:11:00.495Z,67.60
2017-07-26T11:13:27.192Z,65.60
2017-07-26T11:15:53.622Z,66.40
2017-07-26T11:18:20.047Z,64.40
2017-07-26T11:20:46.705Z,64.80
2017-07-26T11:23:13.354Z,64.60
2017-07-26T11:25:39.765Z,63.60
2017-07-26T11:28:06.360Z,62.80
2017-07-26T11:30:32.941Z,63.70
2017-07-26T11:32:59.536Z,64.90
2017-07-26T11:35:26.119Z,61.90
2017-07-26T11:37:54.152Z,62.70
2017-07-26T11:40:20.820Z,62.70
2017-07-26T11:42:47.452Z,61.90
2017-07-26T11:45:13.853Z,63.40
2017-07-26T11:47:40.620Z,62.90
2017-07-26T11:50:07.271Z,64.80
2017-07-26T11:52:33.690Z,64.60
2017-07-26T11:55:00.103Z,62.60
2017-07-26T11:57:26.772Z,62.00
2017-07-26T11:59:53.194Z,63.00
2017-07-26T12:02:20.061Z,64.10
2017-07-26T12:04:46.465Z,64.30
2017-07-26T12:07:13.129Z,64.10
2017-07-26T12:09:39.585Z,63.70
2017-07-26T12:12:07.251Z,63.90
2017-07-26T12:14:33.855Z,63.90
2017-07-26T12:17:00.278Z,65.60
2017-07-26T12:19:26.840Z,66.30
2017-07-26T12:21:53.247Z,66.80
2017-07-26T12:24:19.642Z,67.60
2017-07-26T12:26:46.060Z,67.90
2017-07-26T12:29:12.524Z,67.50
2017-07-26T12:31:38.933Z,67.60
2017-07-26T12:34:05.520Z,68.30
2017-07-26T12:36:31.933Z,68.90
2017-07-26T12:38:58.361Z,70.20
2017-07-26T12:41:25.033Z,68.90
2017-07-26T12:43:51.407Z,68.20
2017-07-26T12:46:17.801Z,70.00
2017-07-26T12:48:44.640Z,71.00
2017-07-26T12:51:11.473Z,71.00
2017-07-26T12:53:37.898Z,69.90
2017-07-26T12:56:04.554Z,66.70
2017-07-26T12:58:31.096Z,67.80
2017-07-26T13:00:57.499Z,68.30
2017-07-26T13:03:23.902Z,68.60
2017-07-26T13:05:50.294Z,66.40
2017-07-26T13:08:17.437Z,65.90
2017-07-26T13:10:43.852Z,65.50
2017-07-26T13:13:10.466Z,65.10
2017-07-26T13:15:37.131Z,63.50
2017-07-26T13:18:03.537Z,63.40
2017-07-26T13:20:29.948Z,63.90
2017-07-26T13:22:56.327Z,61.70
2017-07-26T13:25:22.889Z,61.60
2017-07-26T13:27:49.282Z,61.70
2017-07-26T13:30:15.735Z,61.10
2017-07-26T13:32:42.150Z,61.40
2017-07-26T13:35:08.547Z,61.40
2017-07-26T13:37:34.970Z,64.20
2017-07-26T13:40:02.111Z,66.60
2017-07-26T13:42:29.248Z,67.10
2017-07-26T13:44:55.639Z,67.10
2017-07-26T13:47:22.062Z,67.30
2017-07-26T13:49:48.641Z,68.10
2017-07-26T13:52:15.091Z,69.70
2017-07-26T13:54:42.222Z,69.60
2017-07-26T13:57:08.855Z,69.50
2017-07-26T13:59:35.285Z,69.50
2017-07-26T14:02:01.668Z,68.70
2017-07-26T14:04:28.085Z,67.90
2017-07-26T14:06:55.236Z,69.50
2017-07-26T14:09:21.634Z,69.50
2017-07-26T14:11:48.040Z,70.20
2017-07-26T14:14:14.601Z,68.90
2017-07-26T14:16:41.769Z,68.10
2017-07-26T14:19:08.189Z,68.10
2017-07-26T14:21:34.833Z,67.00
2017-07-26T14:24:01.240Z,66.60
2017-07-26T14:26:27.636Z,66.40
2017-07-26T14:28:54.067Z,67.10
2017-07-26T14:31:20.484Z,67.30
2017-07-26T14:33:47.637Z,67.00
2017-07-26T14:36:14.126Z,67.00
2017-07-26T14:38:40.776Z,67.50
2017-07-26T14:41:07.193Z,68.30
2017-07-26T14:43:33.637Z,66.50
2017-07-26T14:46:00.054Z,66.80
2017-07-26T14:48:26.460Z,66.00
2017-07-26T14:50:52.877Z,67.80
2017-07-26T14:53:19.293Z,66.10
2017-07-26T14:55:46.515Z,62.40
2017-07-26T14:58:12.984Z,62.40
2017-07-26T15:00:40.132Z,63.80
2017-07-26T15:03:07.345Z,63.70
2017-07-26T15:05:33.818Z,64.30
2017-07-26T15:08:01.269Z,63.70
2017-07-26T15:10:28.449Z,63.50
2017-07-26T15:12:54.899Z,63.30
2017-07-26T15:15:21.362Z,62.70
2017-07-26T15:17:48.412Z,62.30
2017-07-26T15:20:14.832Z,62.90
2017-07-26T15:22:41.255Z,63.90
2017-07-26T15:25:07.648Z,64.90
2017-07-26T15:27:34.821Z,65.00
2017-07-26T15:30:01.298Z,65.10
2017-07-26T15:32:27.907Z,65.60
2017-07-26T15:34:54.288Z,65.00
2017-07-26T15:37:21.743Z,64.70
2017-07-26T15:39:48.200Z,64.20
2017-07-26T15:42:14.616Z,64.30
2017-07-26T15:44:41.800Z,64.30
2017-07-26T15:47:08.268Z,64.30
2017-07-26T15:49:34.793Z,63.80
2017-07-26T15:52:01.234Z,64.00
2017-07-26T15:54:27.680Z,64.10
2017-07-26T15:56:54.127Z,63.90
2017-07-26T15:59:21.295Z,62.60
2017-07-26T16:01:47.725Z,62.60
2017-07-26T16:04:14.902Z,63.00
2017-07-26T16:06:41.332Z,63.00
2017-07-26T16:09:07.770Z,62.50
2017-07-26T16:11:34.177Z,63.00
2017-07-26T16:14:01.324Z,62.60
2017-07-26T16:16:27.725Z,62.60
2017-07-26T16:18:54.125Z,63.20
2017-07-26T16:21:20.571Z,62.40
2017-07-26T16:23:46.989Z,62.00
2017-07-26T16:26:13.398Z,62.60
2017-07-26T16:28:39.817Z,62.50
2017-07-26T16:31:07.010Z,62.70
2017-07-26T16:33:33.413Z,62.70
2017-07-26T16:35:59.906Z,62.30
2017-07-26T16:38:27.477Z,63.40
2017-07-26T16:40:53.887Z,63.30
2017-07-26T16:43:20.297Z,63.50
2017-07-26T16:45:46.704Z,63.00
2017-07-26T16:48:13.164Z,63.20
2017-07-26T16:50:39.585Z,63.30
2017-07-26T16:53:05.986Z,64.20
2017-07-26T16:55:33.145Z,64.40
2017-07-26T16:57:59.574Z,64.60
2017-07-26T17:00:26.748Z,63.10
2017-07-26T17:02:53.126Z,63.10
2017-07-26T17:05:19.529Z,63.00
2017-07-26T17:07:45.933Z,63.10
2017-07-26T17:10:12.350Z,63.50
2017-07-26T17:12:39.530Z,63.50
2017-07-26T17:15:06.030Z,63.50
2017-07-26T17:17:32.467Z,63.30
2017-07-26T17:19:59.038Z,63.30
2017-07-26T17:22:25.441Z,63.50
2017-07-26T17:24:52.629Z,63.20
2017-07-26T17:27:19.084Z,63.20
2017-07-26T17:29:45.494Z,63.90
2017-07-26T17:32:11.883Z,64.50
2017-07-26T17:34:38.329Z,64.90
2017-07-26T17:37:04.742Z,65.30
2017-07-26T17:39:31.898Z,65.80
2017-07-26T17:41:59.087Z,66.00
2017-07-26T17:44:25.498Z,65.60
2017-07-26T17:46:52.821Z,66.30
2017-07-26T17:49:19.256Z,66.20
2017-07-26T17:51:45.786Z,66.30
2017-07-26T17:54:12.259Z,66.70
2017-07-26T17:56:39.661Z,66.90
2017-07-26T17:59:06.077Z,67.40
2017-07-26T18:01:32.541Z,67.50
2017-07-26T18:03:58.932Z,68.20
2017-07-26T18:06:25.351Z,69.10
2017-07-26T18:08:51.760Z,70.10
2017-07-26T18:11:18.903Z,70.80
2017-07-26T18:13:45.335Z,70.80
2017-07-26T18:16:12.832Z,72.20
2017-07-26T18:18:40.171Z,71.60
2017-07-26T18:21:06.622Z,72.50
2017-07-26T18:23:33.104Z,72.40
2017-07-26T18:26:02.645Z,72.30
2017-07-26T18:28:29.080Z,72.60
2017-07-26T18:30:55.508Z,72.40
2017-07-26T18:33:22.617Z,72.90
2017-07-26T18:35:49.054Z,72.30
2017-07-26T18:38:15.481Z,72.40
2017-07-26T18:40:41.945Z,73.00
2017-07-26T18:43:09.133Z,72.70
2017-07-26T18:45:35.560Z,72.60
2017-07-26T18:48:01.992Z,72.90
2017-07-26T18:50:28.421Z,73.00
2017-07-26T18:52:54.820Z,72.90
2017-07-26T18:55:21.999Z,72.70
2017-07-26T18:57:48.422Z,72.70
2017-07-26T19:00:14.829Z,72.80
2017-07-26T19:02:41.279Z,72.50
2017-07-26T19:05:08.460Z,72.50
2017-07-26T19:07:34.924Z,72.50
2017-07-26T19:10:02.296Z,72.70
2017-07-26T19:12:29.462Z,72.80
2017-07-26T19:14:56.605Z,73.50
2017-07-26T19:17:22.999Z,72.90
2017-07-26T19:19:49.407Z,72.70
2017-07-26T19:22:15.800Z,72.80
2017-07-26T19:24:42.212Z,72.70
2017-07-26T19:27:08.608Z,72.90
2017-07-26T19:29:35.079Z,73.00
2017-07-26T19:32:01.473Z,72.90
2017-07-26T19:34:27.870Z,72.40
2017-07-26T19:36:54.278Z,72.40
2017-07-26T19:39:20.689Z,72.40
2017-07-26T19:41:47.104Z,72.60
2017-07-26T19:44:13.517Z,72.20
2017-07-26T19:46:40.714Z,72.30
2017-07-26T19:49:07.130Z,72.30
2017-07-26T19:51:33.622Z,72.20
2017-07-26T19:54:00.768Z,73.00
2017-07-26T19:56:27.166Z,72.90
2017-07-26T19:58:53.579Z,73.20
2017-07-26T20:01:20.034Z,73.40
2017-07-26T20:03:46.453Z,73.50
2017-07-26T20:06:12.869Z,73.70
2017-07-26T20:08:39.253Z,73.80
2017-07-26T20:11:05.660Z,73.90
2017-07-26T20:13:32.244Z,74.20
2017-07-26T20:15:59.400Z,74.80
2017-07-26T20:18:26.578Z,74.00
2017-07-26T20:20:53.261Z,74.00
2017-07-26T20:23:19.743Z,74.00
2017-07-26T20:25:46.127Z,74.10
2017-07-26T20:28:12.536Z,73.50
2017-07-26T20:30:38.966Z,74.20
2017-07-26T20:33:05.404Z,74.40
2017-07-26T20:35:31.825Z,74.50
2017-07-26T20:37:58.300Z,74.70
2017-07-26T20:40:24.700Z,74.70
2017-07-26T20:42:51.115Z,74.70
2017-07-26T20:45:17.554Z,74.90
2017-07-26T20:47:43.970Z,74.60
2017-07-26T20:50:10.399Z,74.60
2017-07-26T20:52:36.777Z,74.60
2017-07-26T20:55:03.224Z,74.60
2017-07-26T20:57:29.804Z,74.50
2017-07-26T20:59:56.213Z,74.50
2017-07-26T21:02:23.346Z,75.10
2017-07-26T21:04:49.747Z,74.50
2017-07-26T21:07:16.152Z,74.40
2017-07-26T21:09:42.556Z,74.70
2017-07-26T21:12:09.718Z,75.00
2017-07-26T21:14:36.108Z,74.50
2017-07-26T21:17:02.525Z,74.40
2017-07-26T21:19:28.959Z,74.30
2017-07-26T21:21:55.401Z,74.50
2017-07-26T21:24:21.795Z,74.20
2017-07-26T21:26:48.192Z,74.30
2017-07-26T21:29:14.640Z,74.30
2017-07-26T21:31:41.797Z,74.10
2017-07-26T21:34:08.202Z,74.00
2017-07-26T21:36:34.615Z,73.80
2017-07-26T21:39:00.988Z,74.00
2017-07-26T21:41:28.136Z,74.20
2017-07-26T21:43:55.290Z,74.30
2017-07-26T21:46:21.694Z,74.30
2017-07-26T21:48:48.120Z,74.30
2017-07-26T21:51:14.518Z,74.40
2017-07-26T21:53:40.913Z,74.40
2017-07-26T21:56:08.080Z,74.30
2017-07-26T21:58:34.484Z,74.20
2017-07-26T22:01:00.906Z,74.30
2017-07-26T22:03:27.349Z,75.00
2017-07-26T22:05:54.514Z,75.20
2017-07-26T22:08:21.665Z,74.50
2017-07-26T22:10:48.825Z,74.00
2017-07-26T22:13:15.236Z,74.00
2017-07-26T22:15:41.608Z,74.10
2017-07-26T22:18:08.033Z,74.10
2017-07-26T22:20:34.448Z,74.30
2017-07-26T22:23:00.847Z,74.10
2017-07-26T22:25:27.264Z,74.20
2017-07-26T22:27:53.665Z,74.40
2017-07-26T22:30:20.093Z,74.50
2017-07-26T22:32:46.514Z,74.20
2017-07-26T22:35:12.908Z,74.40
2017-07-26T22:37:39.309Z,74.40
2017-07-26T22:40:05.708Z,74.50
2017-07-26T22:42:32.093Z,74.40
2017-07-26T22:44:58.500Z,74.40
2017-07-26T22:47:24.884Z,74.10
2017-07-26T22:49:51.301Z,74.30
2017-07-26T22:52:17.717Z,74.50
2017-07-26T22:54:44.148Z,74.30
2017-07-26T22:57:10.572Z,74.40
2017-07-26T22:59:36.980Z,74.30
2017-07-26T23:02:03.380Z,74.20
2017-07-26T23:04:29.839Z,74.20
2017-07-26T23:06:56.242Z,74.50
2017-07-26T23:09:22.643Z,74.50
2017-07-26T23:11:49.056Z,74.40
2017-07-26T23:14:15.517Z,74.40
2017-07-26T23:16:41.925Z,74.00
2017-07-26T23:19:08.310Z,74.20
2017-07-26T23:21:35.460Z,74.40
2017-07-26T23:24:02.649Z,74.80
2017-07-26T23:26:29.040Z,74.10
2017-07-26T23:28:55.462Z,74.10
2017-07-26T23:31:21.887Z,74.10
2017-07-26T23:33:48.317Z,74.00
2017-07-26T23:36:14.735Z,73.80
2017-07-26T23:38:41.152Z,74.10
2017-07-26T23:41:07.538Z,74.00
2017-07-26T23:43:33.936Z,73.90
2017-07-26T23:46:00.335Z,74.10
2017-07-26T23:48:26.749Z,73.80
2017-07-26T23:50:53.903Z,73.80
2017-07-26T23:53:21.007Z,74.10
2017-07-26T23:55:48.205Z,73.70
2017-07-26T23:58:14.597Z,73.70
